KAUM/AUM METAR and TAF weather

Enter ICAO airport designator
Station Type Date Time Source
KAUM METAR 2020/06/05 08:56 UTC NOAA

KAUM 050856Z AUTO 00000KT 10SM CLR 20/18 A2978 RMK AO2 LTG DSNT SE AND S


Station Type Date Time Source
KAUM Decoded METAR 2020/06/05 08:56 UTC NOAA

Austin Municipal, MN, United States (KAUM) 43-40N 092-56W
Jun 05, 2020 - 04:56 AM EDT / 2020.06.05 0856 UTC
Wind: Calm:0
Visibility: 10 mile(s):0
Sky conditions: clear
Weather: Lightning observed
Temperature: 68 F (20 C)
Dew Point: 64 F (18 C)
Relative Humidity: 88%
Pressure (altimeter): 29.78 in. Hg (1008 hPa)
ob: KAUM 050856Z AUTO 00000KT 10SM CLR 20/18 A2978 RMK AO2 LTG DSNT SE AND S
cycle: 9

Station Type Date Time Source
KAUM TAF UTC NOAA

Error!

Example: see airport list